createdAt,value
2023-02-12T00:04:05.564Z,1.15
2023-02-12T00:09:07.046Z,1.00
2023-02-12T00:14:08.508Z,1.58
2023-02-12T00:19:09.991Z,2.10
2023-02-12T00:24:11.549Z,1.95
2023-02-12T00:29:13.022Z,1.63
2023-02-12T00:34:14.593Z,1.30
2023-02-12T00:39:16.081Z,2.13
2023-02-12T00:44:17.612Z,1.27
2023-02-12T00:49:20.465Z,2.85
2023-02-12T00:54:22.016Z,1.67
2023-02-12T00:59:24.200Z,1.80
2023-02-12T01:04:25.687Z,1.13
2023-02-12T01:09:27.190Z,1.48
2023-02-12T01:14:28.773Z,1.45
2023-02-12T01:19:30.298Z,1.30
2023-02-12T01:24:31.749Z,1.40
2023-02-12T01:29:33.202Z,0.82
2023-02-12T01:34:34.646Z,0.75
2023-02-12T01:39:36.145Z,0.68
2023-02-12T01:44:39.557Z,0.95
2023-02-12T01:49:42.870Z,0.90
2023-02-12T01:54:44.397Z,0.80
2023-02-12T01:59:48.226Z,0.70
2023-02-12T02:05:07.727Z,0.32
2023-02-12T02:10:09.527Z,0.40
2023-02-12T02:15:11.363Z,0.70
2023-02-12T02:20:15.842Z,0.32
2023-02-12T02:25:20.153Z,0.70
2023-02-12T02:30:27.385Z,0.45
2023-02-12T02:35:40.943Z,1.00
2023-02-12T02:40:50.142Z,0.40
2023-02-12T02:45:54.080Z,0.50
2023-02-12T02:51:14.464Z,0.47
2023-02-12T02:56:17.673Z,0.40
2023-02-12T03:01:22.899Z,0.55
2023-02-12T03:06:45.200Z,0.80
2023-02-12T03:11:46.849Z,0.82
2023-02-12T03:16:54.296Z,0.70
2023-02-12T03:21:55.736Z,0.70
2023-02-12T03:27:04.991Z,0.68
2023-02-12T03:32:14.357Z,0.50
2023-02-12T03:37:15.885Z,0.45
2023-02-12T03:42:23.685Z,0.40
2023-02-12T03:47:44.408Z,0.60
2023-02-12T03:52:47.175Z,0.65
2023-02-12T03:57:52.194Z,0.52
2023-02-12T04:02:54.288Z,0.60
2023-02-12T04:07:56.812Z,0.40
2023-02-12T04:13:27.551Z,0.28
2023-02-12T04:23:30.388Z,0.40
2023-02-12T04:28:31.865Z,0.40
2023-02-12T04:33:40.128Z,0.60
2023-02-12T04:38:44.225Z,0.43
2023-02-12T04:43:45.802Z,0.40
2023-02-12T04:48:53.515Z,0.40
2023-02-12T04:53:54.983Z,0.60
2023-02-12T04:58:57.898Z,0.40
2023-02-12T05:03:59.433Z,0.45
2023-02-12T05:09:00.917Z,0.40
2023-02-12T05:14:02.472Z,0.28
2023-02-12T05:19:03.985Z,0.50
2023-02-12T05:24:05.672Z,0.40
2023-02-12T05:29:07.333Z,0.52
2023-02-12T05:34:10.250Z,0.35
2023-02-12T05:39:11.715Z,0.40
2023-02-12T05:44:15.195Z,0.40
2023-02-12T05:49:16.812Z,0.50
2023-02-12T05:54:18.385Z,0.35
2023-02-12T05:59:21.748Z,0.30
2023-02-12T06:04:25.162Z,0.63
2023-02-12T06:09:26.850Z,0.50
2023-02-12T06:14:30.800Z,0.50
2023-02-12T06:19:33.317Z,0.70
2023-02-12T06:24:34.871Z,0.45
2023-02-12T06:29:36.318Z,0.47
2023-02-12T06:34:37.741Z,0.50
2023-02-12T06:39:39.401Z,0.63
2023-02-12T06:44:40.901Z,0.60
2023-02-12T06:49:42.643Z,0.68
2023-02-12T06:54:44.183Z,0.70
2023-02-12T06:59:45.648Z,0.57
2023-02-12T07:04:47.100Z,0.90
2023-02-12T07:09:48.886Z,0.45
2023-02-12T07:14:50.365Z,0.43
2023-02-12T07:19:51.849Z,0.65
2023-02-12T07:24:53.517Z,0.70
2023-02-12T07:29:54.992Z,0.50
2023-02-12T07:34:56.478Z,0.70
2023-02-12T07:39:57.977Z,0.73
2023-02-12T07:44:59.437Z,0.50
2023-02-12T07:50:00.986Z,1.20
2023-02-12T07:55:02.885Z,0.70
2023-02-12T08:00:04.698Z,0.47
2023-02-12T08:05:06.469Z,0.75
2023-02-12T08:10:08.347Z,0.80
2023-02-12T08:15:10.240Z,0.65
2023-02-12T08:20:11.880Z,0.63
2023-02-12T08:25:13.360Z,0.77
2023-02-12T08:30:15.566Z,0.82
2023-02-12T08:35:17.345Z,0.30
2023-02-12T08:40:18.889Z,0.63
2023-02-12T08:45:20.331Z,0.77
2023-02-12T08:50:22.005Z,0.90
2023-02-12T08:55:24.774Z,0.73
2023-02-12T09:00:26.432Z,1.48
2023-02-12T09:05:27.966Z,1.10
2023-02-12T09:10:29.477Z,1.23
2023-02-12T09:15:31.027Z,1.33
2023-02-12T09:20:33.001Z,2.08
2023-02-12T09:25:34.566Z,20.88
2023-02-12T09:30:36.897Z,16.60
2023-02-12T09:35:39.172Z,5.45
2023-02-12T09:41:06.888Z,1.55
2023-02-12T09:46:27.410Z,1.60
2023-02-12T09:51:29.380Z,1.38
2023-02-12T09:56:30.940Z,0.80
2023-02-12T10:01:32.598Z,1.60
2023-02-12T10:06:41.688Z,4.75
2023-02-12T10:11:53.149Z,15.70
2023-02-12T10:17:08.019Z,6.53
2023-02-12T10:22:18.602Z,7.10
2023-02-12T10:27:46.544Z,5.30
2023-02-12T10:32:50.089Z,10.50
2023-02-12T10:37:54.566Z,12.02
2023-02-12T10:42:57.778Z,14.23
2023-02-12T10:48:21.151Z,14.40
2023-02-12T10:53:24.262Z,4.68
2023-02-12T10:58:25.733Z,8.77
2023-02-12T11:03:34.405Z,8.48
2023-02-12T11:08:38.760Z,10.25
2023-02-12T11:13:42.742Z,14.55
2023-02-12T11:18:44.262Z,8.40
2023-02-12T11:23:46.228Z,16.55
2023-02-12T11:28:58.602Z,7.93
2023-02-12T11:34:08.836Z,11.90
2023-02-12T11:44:13.035Z,10.82
2023-02-12T11:49:19.945Z,6.15
2023-02-12T11:54:26.689Z,12.85
2023-02-12T11:59:34.157Z,7.43
2023-02-12T12:04:36.621Z,12.00
2023-02-12T12:09:48.312Z,8.63
2023-02-12T12:15:17.749Z,35.47
2023-02-12T12:20:22.755Z,7.63
2023-02-12T12:25:29.424Z,12.05
2023-02-12T12:30:49.921Z,6.38
2023-02-12T12:41:00.973Z,3.35
2023-02-12T12:46:17.571Z,2.45
2023-02-12T12:51:25.330Z,4.13
2023-02-12T12:56:34.038Z,4.15
2023-02-12T13:01:53.795Z,2.85
2023-02-12T13:07:13.347Z,3.10
2023-02-12T13:12:29.843Z,3.40
2023-02-12T13:17:34.196Z,2.38
2023-02-12T13:22:35.682Z,2.35
2023-02-12T13:27:40.582Z,2.03
2023-02-12T13:32:45.139Z,1.63
2023-02-12T13:37:49.108Z,2.08
2023-02-12T13:43:09.245Z,1.95
2023-02-12T13:48:29.404Z,1.75
2023-02-12T13:53:49.495Z,1.88
2023-02-12T13:58:52.186Z,1.50
2023-02-12T14:03:53.784Z,2.28
2023-02-12T14:09:08.648Z,1.77
2023-02-12T14:14:10.223Z,1.83
2023-02-12T14:19:30.125Z,1.30
2023-02-12T14:24:38.043Z,1.73
2023-02-12T14:29:39.545Z,1.60
2023-02-12T14:34:41.037Z,1.30
2023-02-12T14:39:42.554Z,1.60
2023-02-12T14:44:44.648Z,1.55
2023-02-12T14:49:49.091Z,1.88
2023-02-12T14:54:50.535Z,1.35
2023-02-12T15:00:10.440Z,2.42
2023-02-12T15:05:24.201Z,1.40
2023-02-12T15:10:29.569Z,1.27
2023-02-12T15:15:37.486Z,1.70
2023-02-12T15:20:43.771Z,1.40
2023-02-12T15:25:45.217Z,1.45
2023-02-12T15:30:46.813Z,1.17
2023-02-12T15:35:48.942Z,1.02
2023-02-12T15:40:54.904Z,1.95
2023-02-12T15:45:56.746Z,1.52
2023-02-12T15:51:01.689Z,1.42
2023-02-12T15:56:19.485Z,1.65
2023-02-12T16:01:25.363Z,1.20
2023-02-12T16:06:28.095Z,1.80
2023-02-12T16:11:30.639Z,1.70
2023-02-12T16:16:45.235Z,1.60
2023-02-12T16:21:48.367Z,1.50
2023-02-12T16:26:51.178Z,1.58
2023-02-12T16:31:57.041Z,2.38
2023-02-12T16:36:58.775Z,1.38
2023-02-12T16:42:00.337Z,1.50
2023-02-12T16:47:01.994Z,1.40
2023-02-12T16:52:22.938Z,1.35
2023-02-12T16:57:24.692Z,1.73
2023-02-12T17:02:26.155Z,1.23
2023-02-12T17:07:29.224Z,1.75
2023-02-12T17:12:30.754Z,1.35
2023-02-12T17:17:32.210Z,1.30
2023-02-12T17:22:33.714Z,1.30
2023-02-12T17:27:37.900Z,0.95
2023-02-12T17:32:39.583Z,1.50
2023-02-12T17:37:41.176Z,1.80
2023-02-12T17:42:42.622Z,1.33
2023-02-12T17:47:44.086Z,1.38
2023-02-12T17:52:45.684Z,1.02
2023-02-12T17:57:51.186Z,1.40
2023-02-12T18:02:53.189Z,1.10
2023-02-12T18:07:56.147Z,1.40
2023-02-12T18:12:57.748Z,0.93
2023-02-12T18:17:59.212Z,1.20
2023-02-12T18:23:00.761Z,1.60
2023-02-12T18:28:02.398Z,1.35
2023-02-12T18:33:04.023Z,1.45
2023-02-12T18:38:05.518Z,1.23
2023-02-12T18:43:07.064Z,1.10
2023-02-12T18:48:09.403Z,1.60
2023-02-12T18:53:11.249Z,1.20
2023-02-12T18:58:12.793Z,1.30
2023-02-12T19:03:14.947Z,0.85
2023-02-12T19:08:16.466Z,1.45
2023-02-12T19:13:17.943Z,1.13
2023-02-12T19:18:19.611Z,1.15
2023-02-12T19:23:21.209Z,1.17
2023-02-12T19:28:22.728Z,0.90
2023-02-12T19:33:24.237Z,1.23
2023-02-12T19:38:25.691Z,1.02
2023-02-12T19:43:27.214Z,0.77
2023-02-12T19:48:28.793Z,1.15
2023-02-12T19:53:30.558Z,1.05
2023-02-12T19:58:32.195Z,1.05
2023-02-12T20:03:33.641Z,1.00
2023-02-12T20:08:35.524Z,1.20
2023-02-12T20:13:37.275Z,1.10
2023-02-12T20:18:39.148Z,1.58
2023-02-12T20:23:40.606Z,1.20
2023-02-12T20:28:43.126Z,1.13
2023-02-12T20:33:44.926Z,1.17
2023-02-12T20:38:50.627Z,1.10
2023-02-12T20:43:52.169Z,0.98
2023-02-12T20:48:54.345Z,1.38
2023-02-12T20:53:56.132Z,1.00
2023-02-12T20:58:58.616Z,1.02
2023-02-12T21:04:07.298Z,1.20
2023-02-12T21:09:10.007Z,1.17
2023-02-12T21:14:21.781Z,1.13
2023-02-12T21:19:25.293Z,1.40
2023-02-12T21:24:26.939Z,1.10
2023-02-12T21:29:33.052Z,1.48
2023-02-12T21:34:34.748Z,1.25
2023-02-12T21:39:36.271Z,1.05
2023-02-12T21:44:38.995Z,0.75
2023-02-12T21:49:40.508Z,0.65
2023-02-12T21:54:42.021Z,0.98
2023-02-12T21:59:43.450Z,1.02
2023-02-12T22:04:45.536Z,1.25
2023-02-12T22:09:47.150Z,0.70
2023-02-12T22:14:49.164Z,0.77
2023-02-12T22:19:50.634Z,1.52
2023-02-12T22:24:52.201Z,1.60
2023-02-12T22:29:53.659Z,1.02
2023-02-12T22:34:55.112Z,0.75
2023-02-12T22:39:56.566Z,0.98
2023-02-12T22:44:58.102Z,0.82
2023-02-12T22:50:00.401Z,1.30
2023-02-12T22:55:02.117Z,0.85
2023-02-12T23:00:04.369Z,0.85
2023-02-12T23:05:05.854Z,0.68
2023-02-12T23:10:07.674Z,1.10
2023-02-12T23:15:09.330Z,1.20
2023-02-12T23:20:11.158Z,0.93
2023-02-12T23:25:12.630Z,0.95
2023-02-12T23:30:14.482Z,0.85
2023-02-12T23:35:16.107Z,0.70
2023-02-12T23:40:17.634Z,1.00
2023-02-12T23:45:19.214Z,0.80
2023-02-12T23:50:20.854Z,0.90
2023-02-12T23:55:22.451Z,1.40
